sensor_id;sensor_type;location;lat;lon;timestamp;P1;durP1;ratioP1;P2;durP2;ratioP2
13999;SDS011;7075;53.574;10.054;2023-05-07T00:01:58;8.13;;;6.97;;
13999;SDS011;7075;53.574;10.054;2023-05-07T00:04:24;8.33;;;7.50;;
13999;SDS011;7075;53.574;10.054;2023-05-07T00:06:49;10.07;;;7.47;;
13999;SDS011;7075;53.574;10.054;2023-05-07T00:09:16;9.03;;;7.37;;
13999;SDS011;7075;53.574;10.054;2023-05-07T00:11:41;8.97;;;7.40;;
13999;SDS011;7075;53.574;10.054;2023-05-07T00:14:07;10.60;;;7.70;;
13999;SDS011;7075;53.574;10.054;2023-05-07T00:16:33;9.37;;;7.67;;
13999;SDS011;7075;53.574;10.054;2023-05-07T00:18:58;8.67;;;7.67;;
13999;SDS011;7075;53.574;10.054;2023-05-07T00:21:24;10.13;;;8.27;;
13999;SDS011;7075;53.574;10.054;2023-05-07T00:23:53;8.40;;;7.40;;
13999;SDS011;7075;53.574;10.054;2023-05-07T00:26:19;10.83;;;8.90;;
13999;SDS011;7075;53.574;10.054;2023-05-07T00:28:45;10.87;;;8.67;;
13999;SDS011;7075;53.574;10.054;2023-05-07T00:31:11;10.33;;;8.27;;
13999;SDS011;7075;53.574;10.054;2023-05-07T00:33:37;9.00;;;7.73;;
13999;SDS011;7075;53.574;10.054;2023-05-07T00:36:03;8.40;;;7.50;;
13999;SDS011;7075;53.574;10.054;2023-05-07T00:38:29;9.10;;;7.37;;
13999;SDS011;7075;53.574;10.054;2023-05-07T00:40:54;11.70;;;8.27;;
13999;SDS011;7075;53.574;10.054;2023-05-07T00:43:20;11.83;;;7.40;;
13999;SDS011;7075;53.574;10.054;2023-05-07T00:45:45;10.57;;;7.40;;
13999;SDS011;7075;53.574;10.054;2023-05-07T00:48:11;9.70;;;7.53;;
13999;SDS011;7075;53.574;10.054;2023-05-07T00:50:37;10.23;;;8.70;;
13999;SDS011;7075;53.574;10.054;2023-05-07T00:53:03;8.57;;;6.77;;
13999;SDS011;7075;53.574;10.054;2023-05-07T00:55:29;9.10;;;7.80;;
13999;SDS011;7075;53.574;10.054;2023-05-07T00:57:55;9.10;;;7.80;;
13999;SDS011;7075;53.574;10.054;2023-05-07T01:00:20;8.33;;;7.40;;
13999;SDS011;7075;53.574;10.054;2023-05-07T01:02:46;10.00;;;7.73;;
13999;SDS011;7075;53.574;10.054;2023-05-07T01:05:12;11.70;;;7.67;;
13999;SDS011;7075;53.574;10.054;2023-05-07T01:07:39;7.07;;;6.37;;
13999;SDS011;7075;53.574;10.054;2023-05-07T01:10:07;7.93;;;7.13;;
13999;SDS011;7075;53.574;10.054;2023-05-07T01:12:34;9.70;;;7.07;;
13999;SDS011;7075;53.574;10.054;2023-05-07T01:15:01;8.50;;;6.93;;
13999;SDS011;7075;53.574;10.054;2023-05-07T01:17:28;7.63;;;6.83;;
13999;SDS011;7075;53.574;10.054;2023-05-07T01:19:54;7.40;;;6.57;;
13999;SDS011;7075;53.574;10.054;2023-05-07T01:22:32;7.43;;;6.63;;
13999;SDS011;7075;53.574;10.054;2023-05-07T01:25:02;7.17;;;6.47;;
13999;SDS011;7075;53.574;10.054;2023-05-07T01:27:29;7.33;;;6.63;;
13999;SDS011;7075;53.574;10.054;2023-05-07T01:29:55;8.33;;;6.17;;
13999;SDS011;7075;53.574;10.054;2023-05-07T01:32:22;7.50;;;6.70;;
13999;SDS011;7075;53.574;10.054;2023-05-07T01:35:11;9.33;;;6.80;;
13999;SDS011;7075;53.574;10.054;2023-05-07T01:37:39;9.27;;;6.57;;
13999;SDS011;7075;53.574;10.054;2023-05-07T01:40:05;7.37;;;5.53;;
13999;SDS011;7075;53.574;10.054;2023-05-07T01:42:32;7.87;;;6.40;;
13999;SDS011;7075;53.574;10.054;2023-05-07T01:44:58;7.20;;;6.37;;
13999;SDS011;7075;53.574;10.054;2023-05-07T01:47:24;7.07;;;6.17;;
13999;SDS011;7075;53.574;10.054;2023-05-07T01:49:51;8.60;;;6.47;;
13999;SDS011;7075;53.574;10.054;2023-05-07T01:52:17;8.33;;;6.10;;
13999;SDS011;7075;53.574;10.054;2023-05-07T01:54:42;8.00;;;6.73;;
13999;SDS011;7075;53.574;10.054;2023-05-07T01:57:08;7.47;;;6.23;;
13999;SDS011;7075;53.574;10.054;2023-05-07T01:59:33;6.90;;;6.20;;
13999;SDS011;7075;53.574;10.054;2023-05-07T02:01:59;7.40;;;6.60;;
13999;SDS011;7075;53.574;10.054;2023-05-07T02:04:25;7.83;;;6.47;;
13999;SDS011;7075;53.574;10.054;2023-05-07T02:06:51;8.20;;;6.30;;
13999;SDS011;7075;53.574;10.054;2023-05-07T02:09:17;7.93;;;6.20;;
13999;SDS011;7075;53.574;10.054;2023-05-07T02:11:47;7.37;;;6.23;;
13999;SDS011;7075;53.574;10.054;2023-05-07T02:14:12;7.10;;;6.37;;
13999;SDS011;7075;53.574;10.054;2023-05-07T02:16:38;7.20;;;5.90;;
13999;SDS011;7075;53.574;10.054;2023-05-07T02:19:03;7.53;;;6.23;;
13999;SDS011;7075;53.574;10.054;2023-05-07T02:21:29;7.17;;;5.90;;
13999;SDS011;7075;53.574;10.054;2023-05-07T02:23:55;7.20;;;5.60;;
13999;SDS011;7075;53.574;10.054;2023-05-07T02:26:20;7.37;;;5.70;;
13999;SDS011;7075;53.574;10.054;2023-05-07T02:28:53;8.17;;;5.93;;
13999;SDS011;7075;53.574;10.054;2023-05-07T02:31:19;7.50;;;6.03;;
13999;SDS011;7075;53.574;10.054;2023-05-07T02:33:44;7.67;;;5.53;;
13999;SDS011;7075;53.574;10.054;2023-05-07T02:36:12;6.97;;;4.97;;
13999;SDS011;7075;53.574;10.054;2023-05-07T02:38:38;7.20;;;5.20;;
13999;SDS011;7075;53.574;10.054;2023-05-07T02:43:32;6.60;;;5.90;;
13999;SDS011;7075;53.574;10.054;2023-05-07T02:46:01;7.30;;;6.47;;
13999;SDS011;7075;53.574;10.054;2023-05-07T02:48:28;6.73;;;6.03;;
13999;SDS011;7075;53.574;10.054;2023-05-07T02:50:54;6.27;;;5.53;;
13999;SDS011;7075;53.574;10.054;2023-05-07T02:53:19;6.67;;;5.70;;
13999;SDS011;7075;53.574;10.054;2023-05-07T02:55:45;6.23;;;5.47;;
13999;SDS011;7075;53.574;10.054;2023-05-07T02:58:10;9.53;;;6.43;;
13999;SDS011;7075;53.574;10.054;2023-05-07T03:00:36;9.07;;;6.30;;
13999;SDS011;7075;53.574;10.054;2023-05-07T03:03:02;8.53;;;6.30;;
13999;SDS011;7075;53.574;10.054;2023-05-07T03:05:27;7.40;;;6.23;;
13999;SDS011;7075;53.574;10.054;2023-05-07T03:07:53;8.40;;;6.87;;
13999;SDS011;7075;53.574;10.054;2023-05-07T03:10:18;6.93;;;5.80;;
13999;SDS011;7075;53.574;10.054;2023-05-07T03:16:06;7.53;;;6.10;;
13999;SDS011;7075;53.574;10.054;2023-05-07T03:18:31;8.00;;;6.23;;
13999;SDS011;7075;53.574;10.054;2023-05-07T03:20:57;8.20;;;6.30;;
13999;SDS011;7075;53.574;10.054;2023-05-07T03:23:22;7.70;;;6.07;;
13999;SDS011;7075;53.574;10.054;2023-05-07T03:25:48;8.87;;;6.53;;
13999;SDS011;7075;53.574;10.054;2023-05-07T03:28:14;9.03;;;6.97;;
13999;SDS011;7075;53.574;10.054;2023-05-07T03:30:39;7.63;;;6.80;;
13999;SDS011;7075;53.574;10.054;2023-05-07T03:33:05;9.17;;;7.43;;
13999;SDS011;7075;53.574;10.054;2023-05-07T03:35:30;7.60;;;6.63;;
13999;SDS011;7075;53.574;10.054;2023-05-07T03:37:56;7.93;;;7.13;;
13999;SDS011;7075;53.574;10.054;2023-05-07T03:40:22;8.07;;;6.80;;
13999;SDS011;7075;53.574;10.054;2023-05-07T03:42:47;8.60;;;6.97;;
13999;SDS011;7075;53.574;10.054;2023-05-07T03:45:13;10.00;;;7.27;;
13999;SDS011;7075;53.574;10.054;2023-05-07T03:47:47;8.90;;;6.73;;
13999;SDS011;7075;53.574;10.054;2023-05-07T03:50:12;7.87;;;6.53;;
13999;SDS011;7075;53.574;10.054;2023-05-07T03:52:38;8.03;;;6.23;;
13999;SDS011;7075;53.574;10.054;2023-05-07T03:55:03;7.63;;;6.60;;
13999;SDS011;7075;53.574;10.054;2023-05-07T03:57:29;6.60;;;5.90;;
13999;SDS011;7075;53.574;10.054;2023-05-07T03:59:54;9.07;;;6.80;;
13999;SDS011;7075;53.574;10.054;2023-05-07T04:02:20;6.83;;;6.13;;
13999;SDS011;7075;53.574;10.054;2023-05-07T04:04:47;7.63;;;6.83;;
13999;SDS011;7075;53.574;10.054;2023-05-07T04:07:14;7.87;;;6.40;;
13999;SDS011;7075;53.574;10.054;2023-05-07T04:09:40;6.77;;;5.87;;
13999;SDS011;7075;53.574;10.054;2023-05-07T04:12:05;8.20;;;6.73;;
13999;SDS011;7075;53.574;10.054;2023-05-07T04:14:31;7.00;;;6.30;;
13999;SDS011;7075;53.574;10.054;2023-05-07T04:16:57;8.47;;;6.70;;
13999;SDS011;7075;53.574;10.054;2023-05-07T04:19:24;8.77;;;6.57;;
13999;SDS011;7075;53.574;10.054;2023-05-07T04:21:50;8.27;;;7.30;;
13999;SDS011;7075;53.574;10.054;2023-05-07T04:24:15;7.77;;;6.80;;
13999;SDS011;7075;53.574;10.054;2023-05-07T04:26:41;7.33;;;6.60;;
13999;SDS011;7075;53.574;10.054;2023-05-07T04:29:07;8.63;;;6.60;;
13999;SDS011;7075;53.574;10.054;2023-05-07T04:31:32;6.80;;;6.00;;
13999;SDS011;7075;53.574;10.054;2023-05-07T04:33:58;8.03;;;7.07;;
13999;SDS011;7075;53.574;10.054;2023-05-07T04:36:24;7.97;;;6.53;;
13999;SDS011;7075;53.574;10.054;2023-05-07T04:38:52;6.20;;;5.50;;
13999;SDS011;7075;53.574;10.054;2023-05-07T04:41:18;6.37;;;5.77;;
13999;SDS011;7075;53.574;10.054;2023-05-07T04:43:44;6.63;;;5.43;;
13999;SDS011;7075;53.574;10.054;2023-05-07T04:46:09;8.47;;;6.57;;
13999;SDS011;7075;53.574;10.054;2023-05-07T04:48:35;6.47;;;5.73;;
13999;SDS011;7075;53.574;10.054;2023-05-07T04:51:00;8.00;;;6.13;;
13999;SDS011;7075;53.574;10.054;2023-05-07T04:53:26;7.07;;;5.60;;
13999;SDS011;7075;53.574;10.054;2023-05-07T04:55:56;6.80;;;5.40;;
13999;SDS011;7075;53.574;10.054;2023-05-07T04:58:22;6.70;;;5.50;;
13999;SDS011;7075;53.574;10.054;2023-05-07T05:00:48;5.90;;;5.10;;
13999;SDS011;7075;53.574;10.054;2023-05-07T05:03:15;6.87;;;4.80;;
13999;SDS011;7075;53.574;10.054;2023-05-07T05:05:41;7.17;;;6.13;;
13999;SDS011;7075;53.574;10.054;2023-05-07T05:08:06;8.03;;;6.73;;
13999;SDS011;7075;53.574;10.054;2023-05-07T05:10:32;6.50;;;5.77;;
13999;SDS011;7075;53.574;10.054;2023-05-07T05:12:57;7.03;;;5.67;;
13999;SDS011;7075;53.574;10.054;2023-05-07T05:15:23;8.20;;;6.30;;
13999;SDS011;7075;53.574;10.054;2023-05-07T05:17:48;6.00;;;5.40;;
13999;SDS011;7075;53.574;10.054;2023-05-07T05:20:14;7.07;;;6.33;;
13999;SDS011;7075;53.574;10.054;2023-05-07T05:22:41;7.37;;;5.60;;
13999;SDS011;7075;53.574;10.054;2023-05-07T05:25:07;7.83;;;5.93;;
13999;SDS011;7075;53.574;10.054;2023-05-07T05:27:32;6.63;;;5.90;;
13999;SDS011;7075;53.574;10.054;2023-05-07T05:29:58;6.77;;;6.00;;
13999;SDS011;7075;53.574;10.054;2023-05-07T05:32:24;6.90;;;5.90;;
13999;SDS011;7075;53.574;10.054;2023-05-07T05:34:50;7.60;;;5.93;;
13999;SDS011;7075;53.574;10.054;2023-05-07T05:37:16;7.30;;;5.90;;
13999;SDS011;7075;53.574;10.054;2023-05-07T05:39:41;7.57;;;6.77;;
13999;SDS011;7075;53.574;10.054;2023-05-07T05:42:07;7.30;;;6.07;;
13999;SDS011;7075;53.574;10.054;2023-05-07T05:44:33;6.60;;;5.90;;
13999;SDS011;7075;53.574;10.054;2023-05-07T05:46:58;6.50;;;5.67;;
13999;SDS011;7075;53.574;10.054;2023-05-07T05:49:24;8.73;;;6.33;;
13999;SDS011;7075;53.574;10.054;2023-05-07T05:51:50;7.43;;;6.30;;
13999;SDS011;7075;53.574;10.054;2023-05-07T05:54:16;9.10;;;6.97;;
13999;SDS011;7075;53.574;10.054;2023-05-07T05:56:41;8.00;;;6.63;;
13999;SDS011;7075;53.574;10.054;2023-05-07T05:59:07;8.90;;;7.07;;
13999;SDS011;7075;53.574;10.054;2023-05-07T06:01:33;7.83;;;6.33;;
13999;SDS011;7075;53.574;10.054;2023-05-07T06:03:58;6.53;;;5.47;;
13999;SDS011;7075;53.574;10.054;2023-05-07T06:06:24;7.00;;;6.13;;
13999;SDS011;7075;53.574;10.054;2023-05-07T06:08:49;6.97;;;6.27;;
13999;SDS011;7075;53.574;10.054;2023-05-07T06:11:15;7.03;;;6.13;;
13999;SDS011;7075;53.574;10.054;2023-05-07T06:13:41;6.87;;;5.70;;
13999;SDS011;7075;53.574;10.054;2023-05-07T06:16:06;7.87;;;5.90;;
13999;SDS011;7075;53.574;10.054;2023-05-07T06:18:32;10.13;;;6.47;;
13999;SDS011;7075;53.574;10.054;2023-05-07T06:20:57;7.23;;;6.07;;
13999;SDS011;7075;53.574;10.054;2023-05-07T06:23:23;9.20;;;6.67;;
13999;SDS011;7075;53.574;10.054;2023-05-07T06:25:50;7.30;;;6.40;;
13999;SDS011;7075;53.574;10.054;2023-05-07T06:28:16;8.00;;;5.90;;
13999;SDS011;7075;53.574;10.054;2023-05-07T06:30:42;7.27;;;6.40;;
13999;SDS011;7075;53.574;10.054;2023-05-07T06:33:08;7.83;;;6.30;;
13999;SDS011;7075;53.574;10.054;2023-05-07T06:35:36;6.40;;;5.80;;
13999;SDS011;7075;53.574;10.054;2023-05-07T06:38:02;8.17;;;5.80;;
13999;SDS011;7075;53.574;10.054;2023-05-07T06:40:27;6.40;;;5.50;;
13999;SDS011;7075;53.574;10.054;2023-05-07T06:42:53;8.53;;;5.33;;
13999;SDS011;7075;53.574;10.054;2023-05-07T06:45:19;5.97;;;5.30;;
13999;SDS011;7075;53.574;10.054;2023-05-07T06:47:45;7.43;;;5.50;;
13999;SDS011;7075;53.574;10.054;2023-05-07T06:50:10;7.53;;;5.60;;
13999;SDS011;7075;53.574;10.054;2023-05-07T06:52:36;5.00;;;4.37;;
13999;SDS011;7075;53.574;10.054;2023-05-07T06:55:02;6.00;;;5.40;;
13999;SDS011;7075;53.574;10.054;2023-05-07T06:57:28;5.17;;;4.67;;
13999;SDS011;7075;53.574;10.054;2023-05-07T06:59:53;7.47;;;4.83;;
13999;SDS011;7075;53.574;10.054;2023-05-07T07:02:19;6.73;;;5.07;;
13999;SDS011;7075;53.574;10.054;2023-05-07T07:04:44;5.57;;;5.03;;
13999;SDS011;7075;53.574;10.054;2023-05-07T07:07:10;7.10;;;5.80;;
13999;SDS011;7075;53.574;10.054;2023-05-07T07:09:36;7.63;;;5.50;;
13999;SDS011;7075;53.574;10.054;2023-05-07T07:12:01;6.13;;;5.17;;
13999;SDS011;7075;53.574;10.054;2023-05-07T07:14:27;5.77;;;5.17;;
13999;SDS011;7075;53.574;10.054;2023-05-07T07:16:53;5.57;;;4.97;;
13999;SDS011;7075;53.574;10.054;2023-05-07T07:19:18;6.77;;;5.20;;
13999;SDS011;7075;53.574;10.054;2023-05-07T07:21:45;7.27;;;5.40;;
13999;SDS011;7075;53.574;10.054;2023-05-07T07:24:10;7.13;;;5.37;;
13999;SDS011;7075;53.574;10.054;2023-05-07T07:26:36;5.60;;;4.93;;
13999;SDS011;7075;53.574;10.054;2023-05-07T07:29:02;6.80;;;4.90;;
13999;SDS011;7075;53.574;10.054;2023-05-07T07:31:27;4.43;;;4.03;;
13999;SDS011;7075;53.574;10.054;2023-05-07T07:33:53;7.10;;;4.87;;
13999;SDS011;7075;53.574;10.054;2023-05-07T07:36:18;5.70;;;4.90;;
13999;SDS011;7075;53.574;10.054;2023-05-07T07:38:44;4.80;;;4.30;;
13999;SDS011;7075;53.574;10.054;2023-05-07T07:41:10;6.57;;;4.40;;
13999;SDS011;7075;53.574;10.054;2023-05-07T07:43:35;6.97;;;4.80;;
13999;SDS011;7075;53.574;10.054;2023-05-07T07:46:01;7.20;;;5.13;;
13999;SDS011;7075;53.574;10.054;2023-05-07T07:48:26;5.83;;;4.90;;
13999;SDS011;7075;53.574;10.054;2023-05-07T07:50:52;6.50;;;4.70;;
13999;SDS011;7075;53.574;10.054;2023-05-07T07:53:17;5.47;;;4.43;;
13999;SDS011;7075;53.574;10.054;2023-05-07T07:55:43;5.50;;;4.37;;
13999;SDS011;7075;53.574;10.054;2023-05-07T07:58:09;4.30;;;3.87;;
13999;SDS011;7075;53.574;10.054;2023-05-07T08:00:35;5.83;;;4.57;;
13999;SDS011;7075;53.574;10.054;2023-05-07T08:03:01;6.40;;;4.63;;
13999;SDS011;7075;53.574;10.054;2023-05-07T08:05:28;4.77;;;4.37;;
13999;SDS011;7075;53.574;10.054;2023-05-07T08:07:54;5.30;;;4.40;;
13999;SDS011;7075;53.574;10.054;2023-05-07T08:10:19;5.13;;;4.13;;
13999;SDS011;7075;53.574;10.054;2023-05-07T08:12:47;4.27;;;3.87;;
13999;SDS011;7075;53.574;10.054;2023-05-07T08:15:16;4.77;;;4.23;;
13999;SDS011;7075;53.574;10.054;2023-05-07T08:17:42;6.17;;;4.90;;
13999;SDS011;7075;53.574;10.054;2023-05-07T08:20:08;7.93;;;4.80;;
13999;SDS011;7075;53.574;10.054;2023-05-07T08:22:34;5.70;;;4.57;;
13999;SDS011;7075;53.574;10.054;2023-05-07T08:25:00;5.80;;;4.13;;
13999;SDS011;7075;53.574;10.054;2023-05-07T08:27:26;7.03;;;4.63;;
13999;SDS011;7075;53.574;10.054;2023-05-07T08:29:59;4.60;;;3.90;;
13999;SDS011;7075;53.574;10.054;2023-05-07T08:32:25;5.60;;;4.67;;
13999;SDS011;7075;53.574;10.054;2023-05-07T08:34:50;5.63;;;4.93;;
13999;SDS011;7075;53.574;10.054;2023-05-07T08:37:16;5.83;;;4.80;;
13999;SDS011;7075;53.574;10.054;2023-05-07T08:39:41;5.60;;;3.97;;
13999;SDS011;7075;53.574;10.054;2023-05-07T08:42:07;17.00;;;5.13;;
13999;SDS011;7075;53.574;10.054;2023-05-07T08:44:36;4.57;;;3.83;;
13999;SDS011;7075;53.574;10.054;2023-05-07T08:47:03;5.83;;;5.00;;
13999;SDS011;7075;53.574;10.054;2023-05-07T08:49:33;6.70;;;4.57;;
13999;SDS011;7075;53.574;10.054;2023-05-07T08:51:59;4.97;;;4.47;;
13999;SDS011;7075;53.574;10.054;2023-05-07T08:54:25;6.50;;;4.37;;
13999;SDS011;7075;53.574;10.054;2023-05-07T08:56:52;5.03;;;4.27;;
13999;SDS011;7075;53.574;10.054;2023-05-07T08:59:18;6.37;;;4.30;;
13999;SDS011;7075;53.574;10.054;2023-05-07T09:01:43;5.07;;;4.33;;
13999;SDS011;7075;53.574;10.054;2023-05-07T09:04:09;6.50;;;4.47;;
13999;SDS011;7075;53.574;10.054;2023-05-07T09:06:35;4.93;;;4.27;;
13999;SDS011;7075;53.574;10.054;2023-05-07T09:09:02;4.57;;;4.17;;
13999;SDS011;7075;53.574;10.054;2023-05-07T09:11:30;4.40;;;3.93;;
13999;SDS011;7075;53.574;10.054;2023-05-07T09:13:56;4.97;;;4.27;;
13999;SDS011;7075;53.574;10.054;2023-05-07T09:16:28;5.73;;;4.53;;
13999;SDS011;7075;53.574;10.054;2023-05-07T09:18:57;4.83;;;3.80;;
13999;SDS011;7075;53.574;10.054;2023-05-07T09:21:24;4.73;;;4.27;;
13999;SDS011;7075;53.574;10.054;2023-05-07T09:23:53;5.40;;;4.10;;
13999;SDS011;7075;53.574;10.054;2023-05-07T09:26:23;5.20;;;3.83;;
13999;SDS011;7075;53.574;10.054;2023-05-07T09:28:51;8.73;;;4.90;;
13999;SDS011;7075;53.574;10.054;2023-05-07T09:31:17;6.10;;;4.37;;
13999;SDS011;7075;53.574;10.054;2023-05-07T09:33:44;5.43;;;4.10;;
13999;SDS011;7075;53.574;10.054;2023-05-07T09:36:11;4.80;;;4.40;;
13999;SDS011;7075;53.574;10.054;2023-05-07T09:38:37;5.07;;;4.57;;
13999;SDS011;7075;53.574;10.054;2023-05-07T09:41:11;5.00;;;4.50;;
13999;SDS011;7075;53.574;10.054;2023-05-07T09:43:40;3.90;;;3.53;;
13999;SDS011;7075;53.574;10.054;2023-05-07T09:46:16;5.60;;;3.77;;
13999;SDS011;7075;53.574;10.054;2023-05-07T09:48:45;6.50;;;3.93;;
13999;SDS011;7075;53.574;10.054;2023-05-07T09:51:21;4.40;;;3.80;;
13999;SDS011;7075;53.574;10.054;2023-05-07T09:53:52;3.87;;;3.57;;
13999;SDS011;7075;53.574;10.054;2023-05-07T09:56:18;5.20;;;3.80;;
13999;SDS011;7075;53.574;10.054;2023-05-07T09:58:45;4.70;;;3.90;;
13999;SDS011;7075;53.574;10.054;2023-05-07T10:01:12;4.90;;;3.93;;
13999;SDS011;7075;53.574;10.054;2023-05-07T10:03:39;5.23;;;3.60;;
13999;SDS011;7075;53.574;10.054;2023-05-07T10:06:07;4.17;;;3.57;;
13999;SDS011;7075;53.574;10.054;2023-05-07T10:08:34;4.93;;;4.43;;
13999;SDS011;7075;53.574;10.054;2023-05-07T10:11:03;4.37;;;3.63;;
13999;SDS011;7075;53.574;10.054;2023-05-07T10:13:29;5.00;;;4.33;;
13999;SDS011;7075;53.574;10.054;2023-05-07T10:15:56;4.37;;;3.93;;
13999;SDS011;7075;53.574;10.054;2023-05-07T10:18:22;5.07;;;4.20;;
13999;SDS011;7075;53.574;10.054;2023-05-07T10:20:54;7.23;;;4.00;;
13999;SDS011;7075;53.574;10.054;2023-05-07T10:23:23;5.10;;;4.00;;
13999;SDS011;7075;53.574;10.054;2023-05-07T10:25:50;5.73;;;4.70;;
13999;SDS011;7075;53.574;10.054;2023-05-07T10:28:17;4.67;;;3.87;;
13999;SDS011;7075;53.574;10.054;2023-05-07T10:31:08;5.37;;;3.80;;
13999;SDS011;7075;53.574;10.054;2023-05-07T10:33:58;4.33;;;3.83;;
13999;SDS011;7075;53.574;10.054;2023-05-07T10:36:27;5.90;;;3.73;;
13999;SDS011;7075;53.574;10.054;2023-05-07T10:38:53;4.07;;;3.67;;
13999;SDS011;7075;53.574;10.054;2023-05-07T10:41:19;6.20;;;3.93;;
13999;SDS011;7075;53.574;10.054;2023-05-07T10:43:46;4.57;;;4.00;;
13999;SDS011;7075;53.574;10.054;2023-05-07T10:46:14;4.20;;;3.80;;
13999;SDS011;7075;53.574;10.054;2023-05-07T10:51:25;4.43;;;3.63;;
13999;SDS011;7075;53.574;10.054;2023-05-07T10:54:18;4.53;;;3.40;;
13999;SDS011;7075;53.574;10.054;2023-05-07T11:01:59;3.37;;;3.07;;
13999;SDS011;7075;53.574;10.054;2023-05-07T11:04:28;3.37;;;3.03;;
13999;SDS011;7075;53.574;10.054;2023-05-07T11:15:12;3.17;;;2.90;;
13999;SDS011;7075;53.574;10.054;2023-05-07T11:17:54;3.13;;;2.80;;
13999;SDS011;7075;53.574;10.054;2023-05-07T11:20:21;2.93;;;2.70;;
13999;SDS011;7075;53.574;10.054;2023-05-07T11:23:54;4.13;;;2.97;;
13999;SDS011;7075;53.574;10.054;2023-05-07T11:26:02;5.17;;;3.10;;
13999;SDS011;7075;53.574;10.054;2023-05-07T11:28:39;5.07;;;2.47;;
13999;SDS011;7075;53.574;10.054;2023-05-07T11:31:06;3.50;;;3.20;;
13999;SDS011;7075;53.574;10.054;2023-05-07T11:33:33;2.97;;;2.67;;
13999;SDS011;7075;53.574;10.054;2023-05-07T11:36:00;2.37;;;2.17;;
13999;SDS011;7075;53.574;10.054;2023-05-07T11:38:28;5.17;;;4.10;;
13999;SDS011;7075;53.574;10.054;2023-05-07T11:40:55;4.23;;;2.90;;
13999;SDS011;7075;53.574;10.054;2023-05-07T11:43:21;4.07;;;3.40;;
13999;SDS011;7075;53.574;10.054;2023-05-07T11:45:47;4.70;;;3.60;;
13999;SDS011;7075;53.574;10.054;2023-05-07T11:48:14;4.27;;;3.40;;
13999;SDS011;7075;53.574;10.054;2023-05-07T11:50:54;3.40;;;3.10;;
13999;SDS011;7075;53.574;10.054;2023-05-07T11:53:26;3.57;;;3.17;;
13999;SDS011;7075;53.574;10.054;2023-05-07T11:55:59;3.97;;;3.00;;
13999;SDS011;7075;53.574;10.054;2023-05-07T11:58:25;3.37;;;2.83;;
13999;SDS011;7075;53.574;10.054;2023-05-07T12:00:52;3.10;;;2.80;;
13999;SDS011;7075;53.574;10.054;2023-05-07T12:03:18;3.00;;;2.60;;
13999;SDS011;7075;53.574;10.054;2023-05-07T12:05:44;3.47;;;2.60;;
13999;SDS011;7075;53.574;10.054;2023-05-07T12:08:14;2.43;;;2.23;;
13999;SDS011;7075;53.574;10.054;2023-05-07T12:10:43;2.87;;;2.60;;
13999;SDS011;7075;53.574;10.054;2023-05-07T12:13:20;2.80;;;2.60;;
13999;SDS011;7075;53.574;10.054;2023-05-07T12:15:50;2.03;;;1.83;;
13999;SDS011;7075;53.574;10.054;2023-05-07T12:18:20;2.00;;;1.57;;
13999;SDS011;7075;53.574;10.054;2023-05-07T12:20:47;1.87;;;1.77;;
13999;SDS011;7075;53.574;10.054;2023-05-07T12:23:14;2.87;;;2.20;;
13999;SDS011;7075;53.574;10.054;2023-05-07T12:25:40;3.27;;;2.30;;
13999;SDS011;7075;53.574;10.054;2023-05-07T12:28:13;3.13;;;2.50;;
13999;SDS011;7075;53.574;10.054;2023-05-07T12:30:43;3.07;;;2.33;;
13999;SDS011;7075;53.574;10.054;2023-05-07T12:33:10;2.40;;;2.20;;
13999;SDS011;7075;53.574;10.054;2023-05-07T12:35:37;2.07;;;1.93;;
13999;SDS011;7075;53.574;10.054;2023-05-07T12:38:07;2.47;;;2.27;;
13999;SDS011;7075;53.574;10.054;2023-05-07T12:40:35;3.20;;;2.00;;
13999;SDS011;7075;53.574;10.054;2023-05-07T12:43:01;3.93;;;2.23;;
13999;SDS011;7075;53.574;10.054;2023-05-07T12:45:27;2.47;;;1.97;;
13999;SDS011;7075;53.574;10.054;2023-05-07T12:47:52;1.77;;;1.67;;
13999;SDS011;7075;53.574;10.054;2023-05-07T12:50:18;2.70;;;1.63;;
13999;SDS011;7075;53.574;10.054;2023-05-07T12:52:46;2.30;;;1.73;;
13999;SDS011;7075;53.574;10.054;2023-05-07T12:55:16;2.10;;;1.90;;
13999;SDS011;7075;53.574;10.054;2023-05-07T12:57:47;1.90;;;1.80;;
13999;SDS011;7075;53.574;10.054;2023-05-07T13:00:13;1.60;;;1.47;;
13999;SDS011;7075;53.574;10.054;2023-05-07T13:02:40;1.67;;;1.57;;
13999;SDS011;7075;53.574;10.054;2023-05-07T13:05:07;2.53;;;2.10;;
13999;SDS011;7075;53.574;10.054;2023-05-07T13:07:33;1.87;;;1.50;;
13999;SDS011;7075;53.574;10.054;2023-05-07T13:09:59;2.60;;;1.73;;
13999;SDS011;7075;53.574;10.054;2023-05-07T13:12:24;2.43;;;2.23;;
13999;SDS011;7075;53.574;10.054;2023-05-07T13:14:50;3.30;;;1.97;;
13999;SDS011;7075;53.574;10.054;2023-05-07T13:17:15;1.70;;;1.47;;
13999;SDS011;7075;53.574;10.054;2023-05-07T13:19:41;3.53;;;2.00;;
13999;SDS011;7075;53.574;10.054;2023-05-07T13:22:06;2.23;;;1.67;;
13999;SDS011;7075;53.574;10.054;2023-05-07T13:24:32;2.53;;;2.30;;
13999;SDS011;7075;53.574;10.054;2023-05-07T13:26:57;1.70;;;1.60;;
13999;SDS011;7075;53.574;10.054;2023-05-07T13:29:23;2.40;;;1.80;;
13999;SDS011;7075;53.574;10.054;2023-05-07T13:31:55;2.87;;;1.80;;
13999;SDS011;7075;53.574;10.054;2023-05-07T13:34:24;3.03;;;1.50;;
13999;SDS011;7075;53.574;10.054;2023-05-07T13:36:50;4.77;;;1.63;;
13999;SDS011;7075;53.574;10.054;2023-05-07T13:39:16;2.43;;;1.70;;
13999;SDS011;7075;53.574;10.054;2023-05-07T13:41:41;3.00;;;2.07;;
13999;SDS011;7075;53.574;10.054;2023-05-07T13:44:07;2.83;;;1.83;;
13999;SDS011;7075;53.574;10.054;2023-05-07T13:46:33;3.17;;;2.03;;
13999;SDS011;7075;53.574;10.054;2023-05-07T13:48:58;2.93;;;2.10;;
13999;SDS011;7075;53.574;10.054;2023-05-07T13:51:24;2.10;;;1.43;;
13999;SDS011;7075;53.574;10.054;2023-05-07T13:53:50;2.17;;;1.63;;
13999;SDS011;7075;53.574;10.054;2023-05-07T13:56:17;1.40;;;1.30;;
13999;SDS011;7075;53.574;10.054;2023-05-07T13:58:42;4.60;;;1.83;;
13999;SDS011;7075;53.574;10.054;2023-05-07T14:01:08;2.10;;;1.73;;
13999;SDS011;7075;53.574;10.054;2023-05-07T14:03:33;1.90;;;1.50;;
13999;SDS011;7075;53.574;10.054;2023-05-07T14:06:00;2.40;;;1.83;;
13999;SDS011;7075;53.574;10.054;2023-05-07T14:08:26;2.50;;;1.40;;
13999;SDS011;7075;53.574;10.054;2023-05-07T14:10:52;2.00;;;1.40;;
13999;SDS011;7075;53.574;10.054;2023-05-07T14:13:18;1.60;;;1.50;;
13999;SDS011;7075;53.574;10.054;2023-05-07T14:15:44;2.33;;;1.30;;
13999;SDS011;7075;53.574;10.054;2023-05-07T14:18:11;1.90;;;1.70;;
13999;SDS011;7075;53.574;10.054;2023-05-07T14:20:37;2.13;;;1.53;;
13999;SDS011;7075;53.574;10.054;2023-05-07T14:23:03;1.40;;;1.30;;
13999;SDS011;7075;53.574;10.054;2023-05-07T14:25:29;1.60;;;1.50;;
13999;SDS011;7075;53.574;10.054;2023-05-07T14:27:54;1.77;;;1.63;;
13999;SDS011;7075;53.574;10.054;2023-05-07T14:30:20;2.00;;;1.80;;
13999;SDS011;7075;53.574;10.054;2023-05-07T14:32:47;4.40;;;1.50;;
13999;SDS011;7075;53.574;10.054;2023-05-07T14:35:12;1.87;;;1.43;;
13999;SDS011;7075;53.574;10.054;2023-05-07T14:37:38;1.90;;;1.60;;
13999;SDS011;7075;53.574;10.054;2023-05-07T14:40:04;5.27;;;1.50;;
13999;SDS011;7075;53.574;10.054;2023-05-07T14:42:30;2.83;;;1.73;;
13999;SDS011;7075;53.574;10.054;2023-05-07T14:44:55;2.10;;;1.40;;
13999;SDS011;7075;53.574;10.054;2023-05-07T14:47:21;2.03;;;1.83;;
13999;SDS011;7075;53.574;10.054;2023-05-07T14:49:46;3.27;;;2.30;;
13999;SDS011;7075;53.574;10.054;2023-05-07T14:52:12;2.50;;;2.30;;
13999;SDS011;7075;53.574;10.054;2023-05-07T14:54:37;1.93;;;1.50;;
13999;SDS011;7075;53.574;10.054;2023-05-07T14:57:04;1.53;;;1.40;;
13999;SDS011;7075;53.574;10.054;2023-05-07T14:59:34;2.03;;;1.50;;
13999;SDS011;7075;53.574;10.054;2023-05-07T15:02:00;3.93;;;1.97;;
13999;SDS011;7075;53.574;10.054;2023-05-07T15:04:26;1.90;;;1.70;;
13999;SDS011;7075;53.574;10.054;2023-05-07T15:06:51;2.20;;;1.80;;
13999;SDS011;7075;53.574;10.054;2023-05-07T15:09:18;1.90;;;1.47;;